Biarritz-Bayonne/Anglet

Airport
ICAO code: 
LFBZ
Summary
ICAO Region: 
EUR
Territory: 
Location: 
Biarritz-Bayonne/Anglet, Aquitaine,
Coordinates: 
Aerial View: 
43° 28' 6.051" N, 1° 31' 22.83" W
Airport WX: 
Fog
Metar
Observation
LFBZ 040700Z AUTO 25010KT 220V280 9999 4100 RA BKN036/// OVC042/// ///TCU 12/09 Q1015 TEMPO 27020G40KT 3000 SHRA FEW018CB BKN020TCU
Station
Biarritz
Date/Time
2021-12-04 07:00:00
Wind direction
250°
Wind speed
10 kts
Lowest cloud amount
broken clouds
Temperature
12°C
Dew point
9°C
Humidity
81%
QNH
1015 hPa
Weather condition
n/a

Description

International airport serving Biarritz.

Climatology

Temperate Marine climate/Oceanic climate (Köppen climate classification Cfb). Moderately cool summer and comparatively warm winter with a temperature range of only 14°C. Prevailing south-westerly winds from the Atlantic Ocean.

Runways

Designator Length Width Surface Rops
9/27 2250 45 ASP Yes/Yes
Airport map: 
Aerial View: 

SKYbrary Partners:

Safety knowledge contributed by: